sensor_id;sensor_type;location;lat;lon;timestamp;pressure;altitude;pressure_sealevel;temperature;humidity
9187;BME280;7273;48.902;9.410;2023-06-14T00:00:19;97509.72;;;16.11;39.04
9187;BME280;7273;48.902;9.410;2023-06-14T00:02:45;97503.78;;;16.09;38.81
9187;BME280;7273;48.902;9.410;2023-06-14T00:05:11;97508.91;;;16.02;39.22
9187;BME280;7273;48.902;9.410;2023-06-14T00:07:41;97517.09;;;16.11;38.85
9187;BME280;7273;48.902;9.410;2023-06-14T00:10:14;97510.38;;;16.08;38.92
9187;BME280;7273;48.902;9.410;2023-06-14T00:12:40;97507.81;;;16.03;39.11
9187;BME280;7273;48.902;9.410;2023-06-14T00:15:07;97512.94;;;16.05;39.04
9187;BME280;7273;48.902;9.410;2023-06-14T00:17:34;97508.91;;;16.02;42.73
9187;BME280;7273;48.902;9.410;2023-06-14T00:20:03;97510.22;;;15.96;39.26
9187;BME280;7273;48.902;9.410;2023-06-14T00:22:32;97511.88;;;15.89;39.15
9187;BME280;7273;48.902;9.410;2023-06-14T00:24:58;97510.41;;;15.83;39.25
9187;BME280;7273;48.902;9.410;2023-06-14T00:27:24;97512.81;;;15.84;39.27
9187;BME280;7273;48.902;9.410;2023-06-14T00:29:50;97507.22;;;15.81;39.30
9187;BME280;7273;48.902;9.410;2023-06-14T00:32:16;97506.75;;;15.79;39.39
9187;BME280;7273;48.902;9.410;2023-06-14T00:34:41;97500.31;;;15.75;39.60
9187;BME280;7273;48.902;9.410;2023-06-14T00:37:07;97497.91;;;15.73;39.77
9187;BME280;7273;48.902;9.410;2023-06-14T00:39:32;97507.88;;;15.69;39.47
9187;BME280;7273;48.902;9.410;2023-06-14T00:41:58;97504.66;;;15.67;39.81
9187;BME280;7273;48.902;9.410;2023-06-14T00:44:24;97503.22;;;15.70;39.75
9187;BME280;7273;48.902;9.410;2023-06-14T00:46:50;97498.56;;;15.62;39.99
9187;BME280;7273;48.902;9.410;2023-06-14T00:49:17;97496.81;;;15.57;40.10
9187;BME280;7273;48.902;9.410;2023-06-14T00:51:43;97507.25;;;15.55;40.17
9187;BME280;7273;48.902;9.410;2023-06-14T00:54:09;97514.44;;;15.60;39.89
9187;BME280;7273;48.902;9.410;2023-06-14T00:56:36;97508.69;;;15.53;40.22
9187;BME280;7273;48.902;9.410;2023-06-14T00:59:03;97507.06;;;15.52;40.10
9187;BME280;7273;48.902;9.410;2023-06-14T01:01:30;97513.34;;;15.44;40.32
9187;BME280;7273;48.902;9.410;2023-06-14T01:03:58;97509.97;;;15.47;39.94
9187;BME280;7273;48.902;9.410;2023-06-14T01:12:34;97508.22;;;15.42;41.30
9187;BME280;7273;48.902;9.410;2023-06-14T01:15:02;97515.06;;;15.31;40.34
9187;BME280;7273;48.902;9.410;2023-06-14T01:17:29;97504.19;;;15.31;40.60
9187;BME280;7273;48.902;9.410;2023-06-14T01:19:57;97514.09;;;15.36;45.24
9187;BME280;7273;48.902;9.410;2023-06-14T01:22:26;97506.59;;;15.33;40.58
9187;BME280;7273;48.902;9.410;2023-06-14T01:24:52;97501.28;;;15.28;40.63
9187;BME280;7273;48.902;9.410;2023-06-14T01:27:24;97506.25;;;15.26;40.90
9187;BME280;7273;48.902;9.410;2023-06-14T01:29:54;97498.88;;;15.35;40.32
9187;BME280;7273;48.902;9.410;2023-06-14T01:32:26;97504.22;;;15.40;40.12
9187;BME280;7273;48.902;9.410;2023-06-14T01:34:53;97507.06;;;15.35;40.49
9187;BME280;7273;48.902;9.410;2023-06-14T01:37:20;97502.41;;;15.35;40.33
9187;BME280;7273;48.902;9.410;2023-06-14T01:39:48;97505.63;;;15.37;40.26
9187;BME280;7273;48.902;9.410;2023-06-14T01:42:17;97510.44;;;15.32;40.14
9187;BME280;7273;48.902;9.410;2023-06-14T01:44:44;97513.94;;;15.32;40.44
9187;BME280;7273;48.902;9.410;2023-06-14T01:47:10;97504.34;;;15.26;40.27
9187;BME280;7273;48.902;9.410;2023-06-14T01:49:36;97506.41;;;15.21;40.75
9187;BME280;7273;48.902;9.410;2023-06-14T01:52:03;97509.44;;;15.19;40.59
9187;BME280;7273;48.902;9.410;2023-06-14T01:54:29;97513.13;;;15.15;40.88
9187;BME280;7273;48.902;9.410;2023-06-14T01:56:57;97504.97;;;15.15;40.71
9187;BME280;7273;48.902;9.410;2023-06-14T01:59:22;97513.75;;;15.03;41.05
9187;BME280;7273;48.902;9.410;2023-06-14T02:01:47;97505.91;;;15.02;41.05
9187;BME280;7273;48.902;9.410;2023-06-14T02:04:13;97509.28;;;14.99;41.20
9187;BME280;7273;48.902;9.410;2023-06-14T02:06:38;97508.94;;;14.92;41.36
9187;BME280;7273;48.902;9.410;2023-06-14T02:09:03;97504.47;;;14.96;41.29
9187;BME280;7273;48.902;9.410;2023-06-14T02:11:29;97504.78;;;14.86;41.11
9187;BME280;7273;48.902;9.410;2023-06-14T02:13:55;97502.53;;;14.88;41.54
9187;BME280;7273;48.902;9.410;2023-06-14T02:16:20;97516.94;;;14.79;41.19
9187;BME280;7273;48.902;9.410;2023-06-14T02:18:47;97501.91;;;14.91;41.42
9187;BME280;7273;48.902;9.410;2023-06-14T02:21:13;97494.66;;;14.77;41.35
9187;BME280;7273;48.902;9.410;2023-06-14T02:23:39;97496.28;;;14.87;41.42
9187;BME280;7273;48.902;9.410;2023-06-14T02:26:05;97502.84;;;14.86;41.11
9187;BME280;7273;48.902;9.410;2023-06-14T02:28:30;97510.53;;;14.84;41.12
9187;BME280;7273;48.902;9.410;2023-06-14T02:30:55;97510.19;;;14.77;41.54
9187;BME280;7273;48.902;9.410;2023-06-14T02:33:21;97511.47;;;14.71;41.49
9187;BME280;7273;48.902;9.410;2023-06-14T02:35:47;97509.38;;;14.68;41.64
9187;BME280;7273;48.902;9.410;2023-06-14T02:38:12;97513.69;;;14.69;41.63
9187;BME280;7273;48.902;9.410;2023-06-14T02:40:38;97518.28;;;14.60;41.85
9187;BME280;7273;48.902;9.410;2023-06-14T02:43:03;97508.56;;;14.67;42.11
9187;BME280;7273;48.902;9.410;2023-06-14T02:45:28;97514.94;;;14.54;41.88
9187;BME280;7273;48.902;9.410;2023-06-14T02:47:54;97511.91;;;14.56;41.92
9187;BME280;7273;48.902;9.410;2023-06-14T02:50:20;97514.75;;;14.51;41.82
9187;BME280;7273;48.902;9.410;2023-06-14T02:52:46;97513.47;;;14.48;42.24
9187;BME280;7273;48.902;9.410;2023-06-14T02:55:12;97509.78;;;14.44;42.39
9187;BME280;7273;48.902;9.410;2023-06-14T02:57:38;97515.03;;;14.41;42.06
9187;BME280;7273;48.902;9.410;2023-06-14T03:00:04;97512.31;;;14.41;42.31
9187;BME280;7273;48.902;9.410;2023-06-14T03:02:30;97518.88;;;14.40;42.09
9187;BME280;7273;48.902;9.410;2023-06-14T03:04:56;97516.63;;;14.33;42.21
9187;BME280;7273;48.902;9.410;2023-06-14T03:07:27;97519.66;;;14.32;42.27
9187;BME280;7273;48.902;9.410;2023-06-14T03:09:52;97515.63;;;14.29;42.41
9187;BME280;7273;48.902;9.410;2023-06-14T03:12:18;97518.97;;;14.26;42.59
9187;BME280;7273;48.902;9.410;2023-06-14T03:14:43;97526.75;;;14.19;42.60
9187;BME280;7273;48.902;9.410;2023-06-14T03:17:10;97522.94;;;14.20;42.66
9187;BME280;7273;48.902;9.410;2023-06-14T03:19:36;97529.25;;;14.07;43.03
9187;BME280;7273;48.902;9.410;2023-06-14T03:22:01;97530.34;;;14.06;42.91
9187;BME280;7273;48.902;9.410;2023-06-14T03:24:27;97531.78;;;14.04;42.95
9187;BME280;7273;48.902;9.410;2023-06-14T03:26:53;97534.31;;;14.00;42.93
9187;BME280;7273;48.902;9.410;2023-06-14T03:29:19;97533.16;;;13.93;43.15
9187;BME280;7273;48.902;9.410;2023-06-14T03:32:01;97539.69;;;13.92;44.45
9187;BME280;7273;48.902;9.410;2023-06-14T03:34:27;97546.59;;;13.89;43.06
9187;BME280;7273;48.902;9.410;2023-06-14T03:36:52;97531.78;;;13.73;43.40
9187;BME280;7273;48.902;9.410;2023-06-14T03:39:18;97538.41;;;13.67;43.33
9187;BME280;7273;48.902;9.410;2023-06-14T03:41:44;97533.16;;;13.71;43.43
9187;BME280;7273;48.902;9.410;2023-06-14T03:44:10;97543.50;;;13.60;43.59
9187;BME280;7273;48.902;9.410;2023-06-14T03:46:35;97536.31;;;13.64;43.41
9187;BME280;7273;48.902;9.410;2023-06-14T03:49:00;97543.00;;;13.58;43.29
9187;BME280;7273;48.902;9.410;2023-06-14T03:51:28;97549.09;;;13.41;43.94
9187;BME280;7273;48.902;9.410;2023-06-14T03:53:54;97548.81;;;13.29;44.07
9187;BME280;7273;48.902;9.410;2023-06-14T03:56:21;97552.47;;;13.25;44.18
9187;BME280;7273;48.902;9.410;2023-06-14T03:58:46;97543.19;;;13.26;43.88
9187;BME280;7273;48.902;9.410;2023-06-14T04:01:12;97549.94;;;13.28;43.99
9187;BME280;7273;48.902;9.410;2023-06-14T04:03:37;97548.72;;;13.34;43.51
9187;BME280;7273;48.902;9.410;2023-06-14T04:06:04;97560.50;;;13.30;43.66
9187;BME280;7273;48.902;9.410;2023-06-14T04:08:30;97559.47;;;13.39;43.62
9187;BME280;7273;48.902;9.410;2023-06-14T04:10:56;97563.50;;;13.42;43.34
9187;BME280;7273;48.902;9.410;2023-06-14T04:13:21;97568.50;;;13.48;43.36
9187;BME280;7273;48.902;9.410;2023-06-14T04:15:47;97574.91;;;13.52;43.86
9187;BME280;7273;48.902;9.410;2023-06-14T04:18:12;97578.44;;;13.53;43.74
9187;BME280;7273;48.902;9.410;2023-06-14T04:20:38;97576.09;;;13.60;43.82
9187;BME280;7273;48.902;9.410;2023-06-14T04:23:14;97579.19;;;13.67;44.68
9187;BME280;7273;48.902;9.410;2023-06-14T04:25:40;97584.81;;;13.71;49.57
9187;BME280;7273;48.902;9.410;2023-06-14T04:28:06;97589.94;;;13.72;43.95
9187;BME280;7273;48.902;9.410;2023-06-14T04:30:34;97589.38;;;13.84;43.44
9187;BME280;7273;48.902;9.410;2023-06-14T04:33:00;97580.59;;;13.87;43.41
9187;BME280;7273;48.902;9.410;2023-06-14T04:35:26;97596.28;;;13.90;43.16
9187;BME280;7273;48.902;9.410;2023-06-14T04:37:54;97585.91;;;13.92;43.40
9187;BME280;7273;48.902;9.410;2023-06-14T04:40:20;97601.13;;;13.93;43.33
9187;BME280;7273;48.902;9.410;2023-06-14T04:42:45;97601.13;;;13.93;43.45
9187;BME280;7273;48.902;9.410;2023-06-14T04:45:11;97603.66;;;13.89;43.45
9187;BME280;7273;48.902;9.410;2023-06-14T04:47:38;97601.59;;;13.95;43.58
9187;BME280;7273;48.902;9.410;2023-06-14T04:50:04;97602.28;;;14.00;43.67
9187;BME280;7273;48.902;9.410;2023-06-14T04:52:29;97607.72;;;14.00;43.31
9187;BME280;7273;48.902;9.410;2023-06-14T04:54:56;97603.16;;;14.09;43.18
9187;BME280;7273;48.902;9.410;2023-06-14T04:57:21;97606.50;;;14.06;43.68
9187;BME280;7273;48.902;9.410;2023-06-14T04:59:48;97606.56;;;14.15;43.36
9187;BME280;7273;48.902;9.410;2023-06-14T05:02:13;97617.72;;;14.27;43.53
9187;BME280;7273;48.902;9.410;2023-06-14T05:04:39;97609.28;;;14.37;43.64
9187;BME280;7273;48.902;9.410;2023-06-14T05:07:08;97623.53;;;14.42;43.61
9187;BME280;7273;48.902;9.410;2023-06-14T05:09:37;97627.13;;;14.51;43.30
9187;BME280;7273;48.902;9.410;2023-06-14T05:12:03;97623.50;;;14.64;43.38
9187;BME280;7273;48.902;9.410;2023-06-14T05:14:28;97617.00;;;14.74;43.33
9187;BME280;7273;48.902;9.410;2023-06-14T05:16:54;97617.34;;;14.81;43.22
9187;BME280;7273;48.902;9.410;2023-06-14T05:19:20;97611.44;;;14.88;43.15
9187;BME280;7273;48.902;9.410;2023-06-14T05:21:47;97616.13;;;14.96;43.22
9187;BME280;7273;48.902;9.410;2023-06-14T05:24:13;97614.06;;;15.10;43.07
9187;BME280;7273;48.902;9.410;2023-06-14T05:26:38;97612.97;;;15.19;42.87
9187;BME280;7273;48.902;9.410;2023-06-14T05:29:04;97620.34;;;15.27;42.98
9187;BME280;7273;48.902;9.410;2023-06-14T05:31:29;97620.38;;;15.36;43.01
9187;BME280;7273;48.902;9.410;2023-06-14T05:33:55;97626.38;;;15.46;43.21
9187;BME280;7273;48.902;9.410;2023-06-14T05:36:20;97635.03;;;15.48;43.33
9187;BME280;7273;48.902;9.410;2023-06-14T05:38:49;97634.56;;;15.55;43.22
9187;BME280;7273;48.902;9.410;2023-06-14T05:41:16;97630.91;;;15.68;42.87
9187;BME280;7273;48.902;9.410;2023-06-14T05:43:41;97637.31;;;15.80;42.87
9187;BME280;7273;48.902;9.410;2023-06-14T05:46:06;97635.03;;;15.91;42.68
9187;BME280;7273;48.902;9.410;2023-06-14T05:48:32;97631.22;;;16.00;42.96
9187;BME280;7273;48.902;9.410;2023-06-14T05:50:57;97631.06;;;16.05;42.81
9187;BME280;7273;48.902;9.410;2023-06-14T05:53:22;97633.28;;;16.12;42.88
9187;BME280;7273;48.902;9.410;2023-06-14T05:55:50;97634.22;;;16.25;42.96
9187;BME280;7273;48.902;9.410;2023-06-14T05:58:17;97628.94;;;16.37;43.21
9187;BME280;7273;48.902;9.410;2023-06-14T06:00:42;97624.56;;;16.44;43.04
9187;BME280;7273;48.902;9.410;2023-06-14T06:03:07;97630.38;;;16.51;43.12
9187;BME280;7273;48.902;9.410;2023-06-14T06:05:36;97628.41;;;16.60;43.17
9187;BME280;7273;48.902;9.410;2023-06-14T06:08:01;97635.25;;;16.75;43.19
9187;BME280;7273;48.902;9.410;2023-06-14T06:10:27;97638.28;;;16.90;42.52
9187;BME280;7273;48.902;9.410;2023-06-14T06:12:52;97640.47;;;17.05;43.00
9187;BME280;7273;48.902;9.410;2023-06-14T06:15:20;97635.25;;;17.12;43.09
9187;BME280;7273;48.902;9.410;2023-06-14T06:17:45;97641.13;;;17.31;43.10
9187;BME280;7273;48.902;9.410;2023-06-14T06:20:11;97642.16;;;17.56;42.52
9187;BME280;7273;48.902;9.410;2023-06-14T06:22:37;97640.13;;;17.65;42.57
9187;BME280;7273;48.902;9.410;2023-06-14T06:25:03;97642.03;;;17.94;42.26
9187;BME280;7273;48.902;9.410;2023-06-14T06:27:28;97646.00;;;18.17;41.88
9187;BME280;7273;48.902;9.410;2023-06-14T06:29:54;97649.94;;;18.48;41.61
9187;BME280;7273;48.902;9.410;2023-06-14T06:32:19;97645.53;;;18.56;41.71
9187;BME280;7273;48.902;9.410;2023-06-14T06:34:44;97652.50;;;18.77;41.58
9187;BME280;7273;48.902;9.410;2023-06-14T06:37:10;97646.97;;;18.98;41.47
9187;BME280;7273;48.902;9.410;2023-06-14T06:39:36;97649.47;;;19.15;41.46
9187;BME280;7273;48.902;9.410;2023-06-14T06:42:01;97646.84;;;19.19;41.55
9187;BME280;7273;48.902;9.410;2023-06-14T06:44:26;97654.66;;;19.29;41.50
9187;BME280;7273;48.902;9.410;2023-06-14T06:46:52;97652.94;;;19.48;41.48
9187;BME280;7273;48.902;9.410;2023-06-14T06:49:17;97652.47;;;19.58;41.45
9187;BME280;7273;48.902;9.410;2023-06-14T06:51:43;97658.75;;;19.83;41.15
9187;BME280;7273;48.902;9.410;2023-06-14T06:54:10;97667.22;;;19.78;41.48
9187;BME280;7273;48.902;9.410;2023-06-14T06:56:35;97667.63;;;19.92;41.44
9187;BME280;7273;48.902;9.410;2023-06-14T06:59:01;97669.31;;;20.08;41.42
9187;BME280;7273;48.902;9.410;2023-06-14T07:01:26;97665.41;;;20.22;41.14
9187;BME280;7273;48.902;9.410;2023-06-14T07:03:54;97672.69;;;20.30;41.43
9187;BME280;7273;48.902;9.410;2023-06-14T07:06:20;97680.56;;;20.43;41.27
9187;BME280;7273;48.902;9.410;2023-06-14T07:08:45;97675.63;;;20.49;41.25
9187;BME280;7273;48.902;9.410;2023-06-14T07:11:13;97683.25;;;20.55;41.43
9187;BME280;7273;48.902;9.410;2023-06-14T07:13:39;97679.00;;;20.58;41.59
9187;BME280;7273;48.902;9.410;2023-06-14T07:16:04;97684.25;;;20.63;41.60
9187;BME280;7273;48.902;9.410;2023-06-14T07:18:29;97683.53;;;20.66;41.63
9187;BME280;7273;48.902;9.410;2023-06-14T07:20:56;97682.50;;;20.70;41.72
9187;BME280;7273;48.902;9.410;2023-06-14T07:23:22;97683.91;;;20.64;41.84
9187;BME280;7273;48.902;9.410;2023-06-14T07:25:48;97685.19;;;20.82;41.64
9187;BME280;7273;48.902;9.410;2023-06-14T07:28:13;97686.19;;;20.90;41.62
9187;BME280;7273;48.902;9.410;2023-06-14T07:30:39;97687.19;;;20.97;41.55
9187;BME280;7273;48.902;9.410;2023-06-14T07:33:05;97686.56;;;21.04;41.74
9187;BME280;7273;48.902;9.410;2023-06-14T07:35:31;97694.66;;;21.12;41.64
9187;BME280;7273;48.902;9.410;2023-06-14T07:37:56;97696.25;;;21.13;41.68
9187;BME280;7273;48.902;9.410;2023-06-14T07:40:22;97693.88;;;21.27;41.47
9187;BME280;7273;48.902;9.410;2023-06-14T07:42:47;97694.31;;;21.29;41.73
9187;BME280;7273;48.902;9.410;2023-06-14T07:45:14;97690.25;;;21.39;41.39
9187;BME280;7273;48.902;9.410;2023-06-14T07:47:40;97707.34;;;21.48;41.37
9187;BME280;7273;48.902;9.410;2023-06-14T07:50:06;97704.44;;;21.57;41.55
9187;BME280;7273;48.902;9.410;2023-06-14T07:52:31;97708.75;;;21.73;41.29
9187;BME280;7273;48.902;9.410;2023-06-14T07:54:56;97703.38;;;21.77;41.27
9187;BME280;7273;48.902;9.410;2023-06-14T07:57:22;97702.81;;;21.87;41.29
9187;BME280;7273;48.902;9.410;2023-06-14T07:59:47;97699.00;;;21.91;40.97
9187;BME280;7273;48.902;9.410;2023-06-14T08:02:13;97703.59;;;22.03;41.04
9187;BME280;7273;48.902;9.410;2023-06-14T08:04:38;97705.44;;;22.14;40.74
9187;BME280;7273;48.902;9.410;2023-06-14T08:07:04;97703.44;;;22.15;40.96
9187;BME280;7273;48.902;9.410;2023-06-14T08:09:30;97706.44;;;22.25;40.77
9187;BME280;7273;48.902;9.410;2023-06-14T08:11:56;97705.50;;;22.37;40.75
9187;BME280;7273;48.902;9.410;2023-06-14T08:14:21;97707.03;;;22.34;40.81
9187;BME280;7273;48.902;9.410;2023-06-14T08:16:47;97701.66;;;22.41;40.74
9187;BME280;7273;48.902;9.410;2023-06-14T08:19:13;97706.88;;;22.46;40.75
9187;BME280;7273;48.902;9.410;2023-06-14T08:21:38;97708.38;;;22.59;40.62
9187;BME280;7273;48.902;9.410;2023-06-14T08:24:03;97717.22;;;22.69;40.61
9187;BME280;7273;48.902;9.410;2023-06-14T08:26:29;97709.75;;;22.69;40.66
9187;BME280;7273;48.902;9.410;2023-06-14T08:28:55;97705.53;;;22.75;40.67
9187;BME280;7273;48.902;9.410;2023-06-14T08:31:21;97706.72;;;22.97;40.59
9187;BME280;7273;48.902;9.410;2023-06-14T08:33:47;97705.00;;;22.89;40.46
9187;BME280;7273;48.902;9.410;2023-06-14T08:36:13;97708.09;;;23.06;40.37
9187;BME280;7273;48.902;9.410;2023-06-14T08:38:39;97708.75;;;23.00;40.53
9187;BME280;7273;48.902;9.410;2023-06-14T08:41:05;97711.22;;;23.05;40.29
9187;BME280;7273;48.902;9.410;2023-06-14T08:43:33;97712.72;;;23.21;40.03
9187;BME280;7273;48.902;9.410;2023-06-14T08:46:03;97717.22;;;23.29;39.89
9187;BME280;7273;48.902;9.410;2023-06-14T08:48:30;97718.47;;;23.32;39.64
9187;BME280;7273;48.902;9.410;2023-06-14T08:51:02;97707.94;;;23.18;39.78
9187;BME280;7273;48.902;9.410;2023-06-14T08:53:32;97714.09;;;23.31;39.82
9187;BME280;7273;48.902;9.410;2023-06-14T08:56:02;97710.66;;;23.37;39.92
9187;BME280;7273;48.902;9.410;2023-06-14T08:58:32;97717.94;;;23.49;39.70
9187;BME280;7273;48.902;9.410;2023-06-14T09:01:00;97720.97;;;23.63;39.67
9187;BME280;7273;48.902;9.410;2023-06-14T09:03:26;97714.06;;;23.76;39.62
9187;BME280;7273;48.902;9.410;2023-06-14T09:05:59;97716.59;;;23.84;39.54
9187;BME280;7273;48.902;9.410;2023-06-14T09:08:26;97718.34;;;23.96;39.41
9187;BME280;7273;48.902;9.410;2023-06-14T09:10:55;97723.59;;;24.01;39.46
9187;BME280;7273;48.902;9.410;2023-06-14T09:13:21;97718.19;;;24.12;39.14
9187;BME280;7273;48.902;9.410;2023-06-14T09:15:47;97709.97;;;24.15;39.03
9187;BME280;7273;48.902;9.410;2023-06-14T09:18:12;97710.84;;;24.23;38.94
9187;BME280;7273;48.902;9.410;2023-06-14T09:20:37;97714.56;;;24.34;38.93
9187;BME280;7273;48.902;9.410;2023-06-14T09:23:04;97719.34;;;24.37;38.75
9187;BME280;7273;48.902;9.410;2023-06-14T09:25:30;97714.69;;;24.44;38.98
9187;BME280;7273;48.902;9.410;2023-06-14T09:27:55;97713.19;;;24.50;38.89
9187;BME280;7273;48.902;9.410;2023-06-14T09:30:21;97712.91;;;24.59;38.72
9187;BME280;7273;48.902;9.410;2023-06-14T09:32:47;97717.56;;;24.51;38.65
9187;BME280;7273;48.902;9.410;2023-06-14T09:35:12;97716.38;;;24.52;38.72
9187;BME280;7273;48.902;9.410;2023-06-14T09:37:42;97725.38;;;24.46;38.82
9187;BME280;7273;48.902;9.410;2023-06-14T09:40:08;97724.88;;;24.66;38.28
9187;BME280;7273;48.902;9.410;2023-06-14T09:42:33;97725.41;;;24.75;38.19
9187;BME280;7273;48.902;9.410;2023-06-14T09:45:02;97718.84;;;24.90;38.02
9187;BME280;7273;48.902;9.410;2023-06-14T09:47:27;97725.34;;;25.05;38.08
9187;BME280;7273;48.902;9.410;2023-06-14T09:49:52;97721.13;;;25.18;37.95
9187;BME280;7273;48.902;9.410;2023-06-14T09:52:22;97726.44;;;25.34;37.84
9187;BME280;7273;48.902;9.410;2023-06-14T09:54:52;97723.03;;;25.47;37.54
9187;BME280;7273;48.902;9.410;2023-06-14T09:57:22;97728.00;;;25.31;37.70
9187;BME280;7273;48.902;9.410;2023-06-14T09:59:57;97721.09;;;25.51;37.47
9187;BME280;7273;48.902;9.410;2023-06-14T10:02:31;97726.31;;;25.63;37.30
9187;BME280;7273;48.902;9.410;2023-06-14T10:05:06;97727.66;;;25.76;36.88
9187;BME280;7273;48.902;9.410;2023-06-14T10:07:53;97723.56;;;25.63;37.02
9187;BME280;7273;48.902;9.410;2023-06-14T10:10:19;97724.53;;;25.38;37.74
9187;BME280;7273;48.902;9.410;2023-06-14T10:12:44;97717.59;;;25.58;37.22
9187;BME280;7273;48.902;9.410;2023-06-14T10:15:12;97723.19;;;25.65;37.24
9187;BME280;7273;48.902;9.410;2023-06-14T10:17:45;97719.47;;;25.50;36.96
9187;BME280;7273;48.902;9.410;2023-06-14T10:20:39;97721.13;;;25.18;35.82
9187;BME280;7273;48.902;9.410;2023-06-14T10:23:20;97715.38;;;24.97;36.54
9187;BME280;7273;48.902;9.410;2023-06-14T10:25:49;97715.50;;;25.11;36.73
9187;BME280;7273;48.902;9.410;2023-06-14T10:28:20;97719.59;;;25.21;36.68
9187;BME280;7273;48.902;9.410;2023-06-14T10:31:08;97703.75;;;25.21;34.06
9187;BME280;7273;48.902;9.410;2023-06-14T10:33:56;97708.41;;;25.47;36.59
9187;BME280;7273;48.902;9.410;2023-06-14T10:36:30;97717.16;;;25.56;36.22
9187;BME280;7273;48.902;9.410;2023-06-14T10:39:13;97710.28;;;25.39;35.61
9187;BME280;7273;48.902;9.410;2023-06-14T10:41:40;97715.38;;;25.34;36.57
9187;BME280;7273;48.902;9.410;2023-06-14T10:46:59;97711.59;;;25.52;36.20
9187;BME280;7273;48.902;9.410;2023-06-14T10:49:49;97708.13;;;25.62;35.25
9187;BME280;7273;48.902;9.410;2023-06-14T10:52:16;97704.75;;;25.86;35.87
9187;BME280;7273;48.902;9.410;2023-06-14T10:55:02;97720.00;;;26.10;34.45
9187;BME280;7273;48.902;9.410;2023-06-14T11:00:08;97717.03;;;26.50;35.35
9187;BME280;7273;48.902;9.410;2023-06-14T11:05:14;97707.75;;;26.14;35.59
9187;BME280;7273;48.902;9.410;2023-06-14T11:07:48;97714.31;;;26.57;34.95
9187;BME280;7273;48.902;9.410;2023-06-14T11:10:36;97713.31;;;27.00;33.74
9187;BME280;7273;48.902;9.410;2023-06-14T11:13:06;97708.69;;;27.60;34.01
9187;BME280;7273;48.902;9.410;2023-06-14T11:15:33;97701.91;;;28.21;33.90
9187;BME280;7273;48.902;9.410;2023-06-14T11:18:04;97697.38;;;28.76;32.86
9187;BME280;7273;48.902;9.410;2023-06-14T11:20:31;97702.56;;;29.47;32.91
9187;BME280;7273;48.902;9.410;2023-06-14T11:22:57;97703.91;;;30.27;30.25
9187;BME280;7273;48.902;9.410;2023-06-14T11:25:23;97699.34;;;30.77;33.28
9187;BME280;7273;48.902;9.410;2023-06-14T11:27:52;97707.22;;;31.46;32.35
9187;BME280;7273;48.902;9.410;2023-06-14T11:30:18;97705.47;;;30.99;34.04
9187;BME280;7273;48.902;9.410;2023-06-14T11:32:51;97705.31;;;30.46;32.57
9187;BME280;7273;48.902;9.410;2023-06-14T11:35:19;97708.13;;;31.09;33.07
9187;BME280;7273;48.902;9.410;2023-06-14T11:37:44;97708.03;;;30.53;33.82
9187;BME280;7273;48.902;9.410;2023-06-14T11:40:11;97710.50;;;30.03;34.00
9187;BME280;7273;48.902;9.410;2023-06-14T11:42:39;97707.38;;;29.43;34.35
9187;BME280;7273;48.902;9.410;2023-06-14T11:45:09;97709.22;;;28.94;34.33
9187;BME280;7273;48.902;9.410;2023-06-14T11:47:35;97703.94;;;28.10;35.33
9187;BME280;7273;48.902;9.410;2023-06-14T11:50:02;97700.38;;;27.92;34.90
9187;BME280;7273;48.902;9.410;2023-06-14T11:52:28;97699.91;;;28.29;34.35
9187;BME280;7273;48.902;9.410;2023-06-14T11:54:53;97701.66;;;29.02;33.94
9187;BME280;7273;48.902;9.410;2023-06-14T11:57:19;97703.06;;;29.89;33.95
9187;BME280;7273;48.902;9.410;2023-06-14T11:59:46;97706.63;;;29.93;34.55
9187;BME280;7273;48.902;9.410;2023-06-14T12:02:15;97706.66;;;30.64;33.87
9187;BME280;7273;48.902;9.410;2023-06-14T12:04:41;97694.44;;;30.88;33.76
9187;BME280;7273;48.902;9.410;2023-06-14T12:07:14;97696.47;;;31.68;31.66
9187;BME280;7273;48.902;9.410;2023-06-14T12:12:22;97696.59;;;32.30;32.67
9187;BME280;7273;48.902;9.410;2023-06-14T12:14:51;97698.94;;;32.12;34.02
9187;BME280;7273;48.902;9.410;2023-06-14T12:17:17;97694.53;;;32.14;33.42
9187;BME280;7273;48.902;9.410;2023-06-14T12:19:44;97692.50;;;32.15;33.21
9187;BME280;7273;48.902;9.410;2023-06-14T12:22:11;97691.00;;;30.74;34.67
9187;BME280;7273;48.902;9.410;2023-06-14T12:24:36;97699.78;;;30.39;34.08
9187;BME280;7273;48.902;9.410;2023-06-14T12:27:03;97703.22;;;30.12;33.21
9187;BME280;7273;48.902;9.410;2023-06-14T12:29:29;97697.31;;;29.59;33.18
9187;BME280;7273;48.902;9.410;2023-06-14T12:31:55;97696.00;;;29.16;33.16
9187;BME280;7273;48.902;9.410;2023-06-14T12:34:25;97698.63;;;28.65;33.29
9187;BME280;7273;48.902;9.410;2023-06-14T12:36:54;97693.94;;;28.30;33.26
9187;BME280;7273;48.902;9.410;2023-06-14T12:39:21;97697.56;;;27.82;33.49
9187;BME280;7273;48.902;9.410;2023-06-14T12:41:47;97695.19;;;27.52;33.61
9187;BME280;7273;48.902;9.410;2023-06-14T12:44:14;97695.03;;;26.82;33.95
9187;BME280;7273;48.902;9.410;2023-06-14T12:46:41;97698.50;;;26.61;33.70
9187;BME280;7273;48.902;9.410;2023-06-14T12:49:10;97687.19;;;27.15;32.51
9187;BME280;7273;48.902;9.410;2023-06-14T12:51:36;97696.31;;;27.19;32.75
9187;BME280;7273;48.902;9.410;2023-06-14T12:54:02;97689.59;;;27.20;32.57
9187;BME280;7273;48.902;9.410;2023-06-14T12:56:27;97684.88;;;27.35;32.51
9187;BME280;7273;48.902;9.410;2023-06-14T12:58:53;97694.81;;;27.46;32.57
9187;BME280;7273;48.902;9.410;2023-06-14T13:01:19;97693.59;;;27.51;32.14
9187;BME280;7273;48.902;9.410;2023-06-14T13:03:46;97691.19;;;27.39;32.32
9187;BME280;7273;48.902;9.410;2023-06-14T13:06:11;97686.84;;;27.45;32.28
9187;BME280;7273;48.902;9.410;2023-06-14T13:08:36;97685.25;;;27.61;31.88
9187;BME280;7273;48.902;9.410;2023-06-14T13:11:02;97690.03;;;27.61;31.81
9187;BME280;7273;48.902;9.410;2023-06-14T13:13:27;97693.94;;;27.21;32.48
9187;BME280;7273;48.902;9.410;2023-06-14T13:15:53;97695.97;;;27.28;32.15
9187;BME280;7273;48.902;9.410;2023-06-14T13:18:18;97694.38;;;27.34;31.95
9187;BME280;7273;48.902;9.410;2023-06-14T13:20:45;97686.38;;;27.15;32.13
9187;BME280;7273;48.902;9.410;2023-06-14T13:23:11;97693.94;;;27.21;31.95
9187;BME280;7273;48.902;9.410;2023-06-14T13:25:37;97689.22;;;27.32;31.86
9187;BME280;7273;48.902;9.410;2023-06-14T13:28:03;97693.19;;;27.45;31.81
9187;BME280;7273;48.902;9.410;2023-06-14T13:30:29;97704.25;;;27.24;31.88
9187;BME280;7273;48.902;9.410;2023-06-14T13:32:55;97699.84;;;27.09;31.93
9187;BME280;7273;48.902;9.410;2023-06-14T13:35:21;97708.56;;;26.94;32.16
9187;BME280;7273;48.902;9.410;2023-06-14T13:37:47;97704.44;;;26.60;32.22